sensor_id;sensor_type;location;lat;lon;timestamp;temperature;humidity
15107;DHT22;7654;45.308;-75.096;2023-03-13T00:02:29;-1.00;99.90
15107;DHT22;7654;45.308;-75.096;2023-03-13T00:04:59;-1.10;99.90
15107;DHT22;7654;45.308;-75.096;2023-03-13T00:07:30;-1.10;99.90
15107;DHT22;7654;45.308;-75.096;2023-03-13T00:10:01;-1.10;99.90
15107;DHT22;7654;45.308;-75.096;2023-03-13T00:12:33;-1.10;99.90
15107;DHT22;7654;45.308;-75.096;2023-03-13T00:15:03;-1.20;99.90
15107;DHT22;7654;45.308;-75.096;2023-03-13T00:17:33;-1.20;99.90
15107;DHT22;7654;45.308;-75.096;2023-03-13T00:20:04;-1.30;99.90
15107;DHT22;7654;45.308;-75.096;2023-03-13T00:22:36;-1.30;99.90
15107;DHT22;7654;45.308;-75.096;2023-03-13T00:25:06;-1.50;99.90
15107;DHT22;7654;45.308;-75.096;2023-03-13T00:27:38;-1.50;99.90
15107;DHT22;7654;45.308;-75.096;2023-03-13T00:30:10;-1.60;99.90
15107;DHT22;7654;45.308;-75.096;2023-03-13T00:32:42;-1.60;99.90
15107;DHT22;7654;45.308;-75.096;2023-03-13T00:35:13;-1.70;99.90
15107;DHT22;7654;45.308;-75.096;2023-03-13T00:37:44;-1.80;99.90
15107;DHT22;7654;45.308;-75.096;2023-03-13T00:40:15;-1.80;99.90
15107;DHT22;7654;45.308;-75.096;2023-03-13T00:42:48;-1.70;99.90
15107;DHT22;7654;45.308;-75.096;2023-03-13T00:45:19;-1.70;99.90
15107;DHT22;7654;45.308;-75.096;2023-03-13T00:47:49;-1.60;99.90
15107;DHT22;7654;45.308;-75.096;2023-03-13T00:50:22;-1.70;99.90
15107;DHT22;7654;45.308;-75.096;2023-03-13T00:52:52;-1.70;99.90
15107;DHT22;7654;45.308;-75.096;2023-03-13T00:55:22;-1.80;99.90
15107;DHT22;7654;45.308;-75.096;2023-03-13T00:57:54;-1.80;99.90
15107;DHT22;7654;45.308;-75.096;2023-03-13T01:00:25;-1.80;99.90
15107;DHT22;7654;45.308;-75.096;2023-03-13T01:02:55;-1.80;99.90
15107;DHT22;7654;45.308;-75.096;2023-03-13T01:05:25;-1.80;99.90
15107;DHT22;7654;45.308;-75.096;2023-03-13T01:07:56;-1.80;99.90
15107;DHT22;7654;45.308;-75.096;2023-03-13T01:10:26;-1.90;99.90
15107;DHT22;7654;45.308;-75.096;2023-03-13T01:12:59;-1.90;99.90
15107;DHT22;7654;45.308;-75.096;2023-03-13T01:15:34;-1.90;99.90
15107;DHT22;7654;45.308;-75.096;2023-03-13T01:18:04;-1.80;99.90
15107;DHT22;7654;45.308;-75.096;2023-03-13T01:20:35;-1.80;99.90
15107;DHT22;7654;45.308;-75.096;2023-03-13T01:23:05;-1.80;99.90
15107;DHT22;7654;45.308;-75.096;2023-03-13T01:25:36;-1.70;99.90
15107;DHT22;7654;45.308;-75.096;2023-03-13T01:28:08;-1.80;99.90
15107;DHT22;7654;45.308;-75.096;2023-03-13T01:30:38;-1.80;99.90
15107;DHT22;7654;45.308;-75.096;2023-03-13T01:33:09;-1.80;99.90
15107;DHT22;7654;45.308;-75.096;2023-03-13T01:35:39;-1.80;99.90
15107;DHT22;7654;45.308;-75.096;2023-03-13T01:38:09;-1.80;99.90
15107;DHT22;7654;45.308;-75.096;2023-03-13T01:40:40;-1.80;99.90
15107;DHT22;7654;45.308;-75.096;2023-03-13T01:43:21;-1.80;99.90
15107;DHT22;7654;45.308;-75.096;2023-03-13T01:46:00;-1.90;99.90
15107;DHT22;7654;45.308;-75.096;2023-03-13T01:48:36;-1.80;99.90
15107;DHT22;7654;45.308;-75.096;2023-03-13T01:51:12;-1.90;99.90
15107;DHT22;7654;45.308;-75.096;2023-03-13T01:53:44;-1.90;99.90
15107;DHT22;7654;45.308;-75.096;2023-03-13T01:56:21;-1.90;99.90
15107;DHT22;7654;45.308;-75.096;2023-03-13T01:58:56;-1.90;99.90
15107;DHT22;7654;45.308;-75.096;2023-03-13T02:01:27;-1.90;99.90
15107;DHT22;7654;45.308;-75.096;2023-03-13T02:03:58;-1.90;99.90
15107;DHT22;7654;45.308;-75.096;2023-03-13T02:06:31;-1.90;99.90
15107;DHT22;7654;45.308;-75.096;2023-03-13T02:09:03;-1.90;99.90
15107;DHT22;7654;45.308;-75.096;2023-03-13T02:11:44;-1.80;99.90
15107;DHT22;7654;45.308;-75.096;2023-03-13T02:14:19;-1.80;99.90
15107;DHT22;7654;45.308;-75.096;2023-03-13T02:16:52;-1.70;99.90
15107;DHT22;7654;45.308;-75.096;2023-03-13T02:19:28;-1.70;99.90
15107;DHT22;7654;45.308;-75.096;2023-03-13T02:22:05;-1.80;99.90
15107;DHT22;7654;45.308;-75.096;2023-03-13T02:24:44;-1.90;99.90
15107;DHT22;7654;45.308;-75.096;2023-03-13T02:27:19;-2.00;99.90
15107;DHT22;7654;45.308;-75.096;2023-03-13T02:29:50;-2.00;99.90
15107;DHT22;7654;45.308;-75.096;2023-03-13T02:32:21;-2.00;99.90
15107;DHT22;7654;45.308;-75.096;2023-03-13T02:34:53;-2.00;99.90
15107;DHT22;7654;45.308;-75.096;2023-03-13T02:37:26;-2.00;99.90
15107;DHT22;7654;45.308;-75.096;2023-03-13T02:40:00;-2.00;99.90
15107;DHT22;7654;45.308;-75.096;2023-03-13T02:42:34;-2.00;99.90
15107;DHT22;7654;45.308;-75.096;2023-03-13T02:45:07;-2.00;99.90
15107;DHT22;7654;45.308;-75.096;2023-03-13T02:47:38;-2.00;99.90
15107;DHT22;7654;45.308;-75.096;2023-03-13T02:50:09;-2.10;99.90
15107;DHT22;7654;45.308;-75.096;2023-03-13T02:52:42;-2.10;99.90
15107;DHT22;7654;45.308;-75.096;2023-03-13T02:55:15;-2.20;99.90
15107;DHT22;7654;45.308;-75.096;2023-03-13T02:57:48;-2.20;99.90
15107;DHT22;7654;45.308;-75.096;2023-03-13T03:00:18;-2.20;99.90
15107;DHT22;7654;45.308;-75.096;2023-03-13T03:02:53;-2.10;99.90
15107;DHT22;7654;45.308;-75.096;2023-03-13T03:05:24;-2.10;99.90
15107;DHT22;7654;45.308;-75.096;2023-03-13T03:07:54;-2.10;99.90
15107;DHT22;7654;45.308;-75.096;2023-03-13T03:10:24;-2.10;99.90
15107;DHT22;7654;45.308;-75.096;2023-03-13T03:12:56;-2.00;99.90
15107;DHT22;7654;45.308;-75.096;2023-03-13T03:15:27;-2.10;99.90
15107;DHT22;7654;45.308;-75.096;2023-03-13T03:17:57;-2.10;99.90
15107;DHT22;7654;45.308;-75.096;2023-03-13T03:20:27;-2.10;99.90
15107;DHT22;7654;45.308;-75.096;2023-03-13T03:22:57;-2.10;99.90
15107;DHT22;7654;45.308;-75.096;2023-03-13T03:25:28;-2.10;99.90
15107;DHT22;7654;45.308;-75.096;2023-03-13T03:28:00;-2.10;99.90
15107;DHT22;7654;45.308;-75.096;2023-03-13T03:30:30;-2.10;99.90
15107;DHT22;7654;45.308;-75.096;2023-03-13T03:33:02;-2.00;99.90
15107;DHT22;7654;45.308;-75.096;2023-03-13T03:35:32;-2.00;99.90
15107;DHT22;7654;45.308;-75.096;2023-03-13T03:38:05;-2.00;99.90
15107;DHT22;7654;45.308;-75.096;2023-03-13T03:40:35;-2.00;99.90
15107;DHT22;7654;45.308;-75.096;2023-03-13T03:43:07;-2.00;99.90
15107;DHT22;7654;45.308;-75.096;2023-03-13T03:45:38;-2.00;99.90
15107;DHT22;7654;45.308;-75.096;2023-03-13T03:48:08;-2.00;99.90
15107;DHT22;7654;45.308;-75.096;2023-03-13T03:50:38;-2.00;99.90
15107;DHT22;7654;45.308;-75.096;2023-03-13T03:53:09;-2.10;99.90
15107;DHT22;7654;45.308;-75.096;2023-03-13T03:55:39;-2.10;99.90
15107;DHT22;7654;45.308;-75.096;2023-03-13T03:58:11;-2.10;99.90
15107;DHT22;7654;45.308;-75.096;2023-03-13T04:00:43;-2.00;99.90
15107;DHT22;7654;45.308;-75.096;2023-03-13T04:03:13;-2.10;99.90
15107;DHT22;7654;45.308;-75.096;2023-03-13T04:05:44;-2.10;99.90
15107;DHT22;7654;45.308;-75.096;2023-03-13T04:08:14;-2.10;99.90
15107;DHT22;7654;45.308;-75.096;2023-03-13T04:10:44;-2.10;99.90
15107;DHT22;7654;45.308;-75.096;2023-03-13T04:13:16;-2.10;99.90
15107;DHT22;7654;45.308;-75.096;2023-03-13T04:15:47;-2.20;99.90
15107;DHT22;7654;45.308;-75.096;2023-03-13T04:18:17;-2.20;99.90
15107;DHT22;7654;45.308;-75.096;2023-03-13T04:20:48;-2.20;99.90
15107;DHT22;7654;45.308;-75.096;2023-03-13T04:23:18;-2.20;99.90
15107;DHT22;7654;45.308;-75.096;2023-03-13T04:25:48;-2.20;99.90
15107;DHT22;7654;45.308;-75.096;2023-03-13T04:28:20;-2.10;99.90
15107;DHT22;7654;45.308;-75.096;2023-03-13T04:30:50;-2.10;99.90
15107;DHT22;7654;45.308;-75.096;2023-03-13T04:33:24;-2.10;99.90
15107;DHT22;7654;45.308;-75.096;2023-03-13T04:35:54;-2.10;99.90
15107;DHT22;7654;45.308;-75.096;2023-03-13T04:38:25;-2.00;99.90
15107;DHT22;7654;45.308;-75.096;2023-03-13T04:40:55;-2.00;99.90
15107;DHT22;7654;45.308;-75.096;2023-03-13T04:43:26;-2.00;99.90
15107;DHT22;7654;45.308;-75.096;2023-03-13T04:45:57;-2.10;99.90
15107;DHT22;7654;45.308;-75.096;2023-03-13T04:48:27;-2.10;99.90
15107;DHT22;7654;45.308;-75.096;2023-03-13T04:50:58;-2.00;99.90
15107;DHT22;7654;45.308;-75.096;2023-03-13T04:53:29;-2.00;99.90
15107;DHT22;7654;45.308;-75.096;2023-03-13T04:55:59;-2.00;99.90
15107;DHT22;7654;45.308;-75.096;2023-03-13T04:58:31;-1.90;99.90
15107;DHT22;7654;45.308;-75.096;2023-03-13T05:01:01;-1.80;99.90
15107;DHT22;7654;45.308;-75.096;2023-03-13T05:03:31;-1.80;99.90
15107;DHT22;7654;45.308;-75.096;2023-03-13T05:06:01;-1.70;99.90
15107;DHT22;7654;45.308;-75.096;2023-03-13T05:08:31;-1.70;99.90
15107;DHT22;7654;45.308;-75.096;2023-03-13T05:11:03;-1.60;99.90
15107;DHT22;7654;45.308;-75.096;2023-03-13T05:13:35;-1.60;99.90
15107;DHT22;7654;45.308;-75.096;2023-03-13T05:16:06;-1.60;99.90
15107;DHT22;7654;45.308;-75.096;2023-03-13T05:18:37;-1.50;99.90
15107;DHT22;7654;45.308;-75.096;2023-03-13T05:21:08;-1.50;99.90
15107;DHT22;7654;45.308;-75.096;2023-03-13T05:23:38;-1.50;99.90
15107;DHT22;7654;45.308;-75.096;2023-03-13T05:26:09;-1.50;99.90
15107;DHT22;7654;45.308;-75.096;2023-03-13T05:28:40;-1.50;99.90
15107;DHT22;7654;45.308;-75.096;2023-03-13T05:31:11;-1.50;99.90
15107;DHT22;7654;45.308;-75.096;2023-03-13T05:33:41;-1.50;99.90
15107;DHT22;7654;45.308;-75.096;2023-03-13T05:36:11;-1.50;99.90
15107;DHT22;7654;45.308;-75.096;2023-03-13T05:38:41;-1.50;99.90
15107;DHT22;7654;45.308;-75.096;2023-03-13T05:41:12;-1.50;99.90
15107;DHT22;7654;45.308;-75.096;2023-03-13T05:43:44;-1.50;99.90
15107;DHT22;7654;45.308;-75.096;2023-03-13T05:46:14;-1.60;99.90
15107;DHT22;7654;45.308;-75.096;2023-03-13T05:48:45;-1.60;99.90
15107;DHT22;7654;45.308;-75.096;2023-03-13T05:51:16;-1.60;99.90
15107;DHT22;7654;45.308;-75.096;2023-03-13T05:53:46;-1.70;99.90
15107;DHT22;7654;45.308;-75.096;2023-03-13T05:56:16;-1.70;99.90
15107;DHT22;7654;45.308;-75.096;2023-03-13T05:58:48;-1.70;99.90
15107;DHT22;7654;45.308;-75.096;2023-03-13T06:01:18;-1.70;99.90
15107;DHT22;7654;45.308;-75.096;2023-03-13T06:03:49;-1.70;99.90
15107;DHT22;7654;45.308;-75.096;2023-03-13T06:06:20;-1.70;99.90
15107;DHT22;7654;45.308;-75.096;2023-03-13T06:08:51;-1.70;99.90
15107;DHT22;7654;45.308;-75.096;2023-03-13T06:11:21;-1.70;99.90
15107;DHT22;7654;45.308;-75.096;2023-03-13T06:13:54;-1.80;99.90
15107;DHT22;7654;45.308;-75.096;2023-03-13T06:16:25;-1.80;99.90
15107;DHT22;7654;45.308;-75.096;2023-03-13T06:18:55;-1.80;99.90
15107;DHT22;7654;45.308;-75.096;2023-03-13T06:21:25;-1.80;99.90
15107;DHT22;7654;45.308;-75.096;2023-03-13T06:23:56;-1.90;99.90
15107;DHT22;7654;45.308;-75.096;2023-03-13T06:26:26;-1.90;99.90
15107;DHT22;7654;45.308;-75.096;2023-03-13T06:28:58;-1.90;99.90
15107;DHT22;7654;45.308;-75.096;2023-03-13T06:31:28;-1.90;99.90
15107;DHT22;7654;45.308;-75.096;2023-03-13T06:33:58;-1.90;99.90
15107;DHT22;7654;45.308;-75.096;2023-03-13T06:36:28;-1.90;99.90
15107;DHT22;7654;45.308;-75.096;2023-03-13T06:38:59;-1.80;99.90
15107;DHT22;7654;45.308;-75.096;2023-03-13T06:41:29;-1.80;99.90
15107;DHT22;7654;45.308;-75.096;2023-03-13T06:44:01;-1.80;99.90
15107;DHT22;7654;45.308;-75.096;2023-03-13T06:46:32;-1.80;99.90
15107;DHT22;7654;45.308;-75.096;2023-03-13T06:49:04;-1.70;99.90
15107;DHT22;7654;45.308;-75.096;2023-03-13T06:51:34;-1.70;99.90
15107;DHT22;7654;45.308;-75.096;2023-03-13T06:54:06;-1.70;99.90
15107;DHT22;7654;45.308;-75.096;2023-03-13T06:56:36;-1.70;99.90
15107;DHT22;7654;45.308;-75.096;2023-03-13T06:59:08;-1.70;99.90
15107;DHT22;7654;45.308;-75.096;2023-03-13T07:01:38;-1.70;99.90
15107;DHT22;7654;45.308;-75.096;2023-03-13T07:04:11;-1.80;99.90
15107;DHT22;7654;45.308;-75.096;2023-03-13T07:06:41;-1.80;99.90
15107;DHT22;7654;45.308;-75.096;2023-03-13T07:09:12;-1.80;99.90
15107;DHT22;7654;45.308;-75.096;2023-03-13T07:11:42;-1.80;99.90
15107;DHT22;7654;45.308;-75.096;2023-03-13T07:14:15;-1.80;99.90
15107;DHT22;7654;45.308;-75.096;2023-03-13T07:16:45;-1.80;99.90
15107;DHT22;7654;45.308;-75.096;2023-03-13T07:19:16;-1.80;99.90
15107;DHT22;7654;45.308;-75.096;2023-03-13T07:21:46;-1.80;99.90
15107;DHT22;7654;45.308;-75.096;2023-03-13T07:24:16;-1.80;99.90
15107;DHT22;7654;45.308;-75.096;2023-03-13T07:26:47;-1.80;99.90
15107;DHT22;7654;45.308;-75.096;2023-03-13T07:29:35;-1.70;99.90
15107;DHT22;7654;45.308;-75.096;2023-03-13T07:32:05;-1.70;99.90
15107;DHT22;7654;45.308;-75.096;2023-03-13T07:34:36;-1.70;99.90
15107;DHT22;7654;45.308;-75.096;2023-03-13T07:37:07;-1.70;99.90
15107;DHT22;7654;45.308;-75.096;2023-03-13T07:39:37;-1.70;99.90
15107;DHT22;7654;45.308;-75.096;2023-03-13T07:42:08;-1.70;99.90
15107;DHT22;7654;45.308;-75.096;2023-03-13T07:44:40;-1.70;99.90
15107;DHT22;7654;45.308;-75.096;2023-03-13T07:47:11;-1.80;99.90
15107;DHT22;7654;45.308;-75.096;2023-03-13T07:49:41;-1.80;99.90
15107;DHT22;7654;45.308;-75.096;2023-03-13T07:52:13;-1.80;99.90
15107;DHT22;7654;45.308;-75.096;2023-03-13T07:54:45;-1.80;99.90
15107;DHT22;7654;45.308;-75.096;2023-03-13T07:57:15;-1.80;99.90
15107;DHT22;7654;45.308;-75.096;2023-03-13T07:59:47;-1.80;99.90
15107;DHT22;7654;45.308;-75.096;2023-03-13T08:02:17;-1.80;99.90
15107;DHT22;7654;45.308;-75.096;2023-03-13T08:04:51;-1.90;99.90
15107;DHT22;7654;45.308;-75.096;2023-03-13T08:07:23;-1.90;99.90
15107;DHT22;7654;45.308;-75.096;2023-03-13T08:09:53;-1.90;99.90
15107;DHT22;7654;45.308;-75.096;2023-03-13T08:12:23;-1.90;99.90
15107;DHT22;7654;45.308;-75.096;2023-03-13T08:14:56;-1.90;99.90
15107;DHT22;7654;45.308;-75.096;2023-03-13T08:17:28;-1.80;99.90
15107;DHT22;7654;45.308;-75.096;2023-03-13T08:19:58;-1.80;99.90
15107;DHT22;7654;45.308;-75.096;2023-03-13T08:22:28;-1.80;99.90
15107;DHT22;7654;45.308;-75.096;2023-03-13T08:24:59;-1.80;99.90
15107;DHT22;7654;45.308;-75.096;2023-03-13T08:27:29;-1.80;99.90
15107;DHT22;7654;45.308;-75.096;2023-03-13T08:30:01;-1.80;99.90
15107;DHT22;7654;45.308;-75.096;2023-03-13T08:32:32;-1.70;99.90
15107;DHT22;7654;45.308;-75.096;2023-03-13T08:35:03;-1.70;99.90
15107;DHT22;7654;45.308;-75.096;2023-03-13T08:37:34;-1.70;99.90
15107;DHT22;7654;45.308;-75.096;2023-03-13T08:40:05;-1.70;99.90
15107;DHT22;7654;45.308;-75.096;2023-03-13T08:42:38;-1.70;99.90
15107;DHT22;7654;45.308;-75.096;2023-03-13T08:45:11;-1.80;99.90
15107;DHT22;7654;45.308;-75.096;2023-03-13T08:47:41;-1.80;99.90
15107;DHT22;7654;45.308;-75.096;2023-03-13T08:50:12;-1.70;99.90
15107;DHT22;7654;45.308;-75.096;2023-03-13T08:52:43;-1.80;99.90
15107;DHT22;7654;45.308;-75.096;2023-03-13T08:55:14;-1.80;99.90
15107;DHT22;7654;45.308;-75.096;2023-03-13T08:57:44;-1.80;99.90
15107;DHT22;7654;45.308;-75.096;2023-03-13T09:00:17;-1.80;99.90
15107;DHT22;7654;45.308;-75.096;2023-03-13T09:02:47;-1.80;99.90
15107;DHT22;7654;45.308;-75.096;2023-03-13T09:05:18;-1.80;99.90
15107;DHT22;7654;45.308;-75.096;2023-03-13T09:07:48;-1.80;99.90
15107;DHT22;7654;45.308;-75.096;2023-03-13T09:10:18;-1.80;99.90
15107;DHT22;7654;45.308;-75.096;2023-03-13T09:12:48;-1.80;99.90
15107;DHT22;7654;45.308;-75.096;2023-03-13T09:15:20;-1.80;99.90
15107;DHT22;7654;45.308;-75.096;2023-03-13T09:17:50;-1.80;99.90
15107;DHT22;7654;45.308;-75.096;2023-03-13T09:20:21;-1.80;99.90
15107;DHT22;7654;45.308;-75.096;2023-03-13T09:22:51;-1.70;99.90
15107;DHT22;7654;45.308;-75.096;2023-03-13T09:25:21;-1.70;99.90
15107;DHT22;7654;45.308;-75.096;2023-03-13T09:27:51;-1.70;99.90
15107;DHT22;7654;45.308;-75.096;2023-03-13T09:30:23;-1.70;99.90
15107;DHT22;7654;45.308;-75.096;2023-03-13T09:32:53;-1.70;99.90
15107;DHT22;7654;45.308;-75.096;2023-03-13T09:35:24;-1.60;99.90
15107;DHT22;7654;45.308;-75.096;2023-03-13T09:37:54;-1.60;99.90
15107;DHT22;7654;45.308;-75.096;2023-03-13T09:40:26;-1.60;99.90
15107;DHT22;7654;45.308;-75.096;2023-03-13T09:42:58;-1.60;99.90
15107;DHT22;7654;45.308;-75.096;2023-03-13T09:45:33;-1.60;99.90
15107;DHT22;7654;45.308;-75.096;2023-03-13T09:48:07;-1.60;99.90
15107;DHT22;7654;45.308;-75.096;2023-03-13T09:50:43;-1.60;99.90
15107;DHT22;7654;45.308;-75.096;2023-03-13T09:53:19;-1.60;99.90
15107;DHT22;7654;45.308;-75.096;2023-03-13T09:55:54;-1.60;99.90
15107;DHT22;7654;45.308;-75.096;2023-03-13T09:58:27;-1.70;99.90
15107;DHT22;7654;45.308;-75.096;2023-03-13T10:01:02;-1.60;99.90
15107;DHT22;7654;45.308;-75.096;2023-03-13T10:03:37;-1.60;99.90
15107;DHT22;7654;45.308;-75.096;2023-03-13T10:06:14;-1.60;99.90
15107;DHT22;7654;45.308;-75.096;2023-03-13T10:08:46;-1.60;99.90
15107;DHT22;7654;45.308;-75.096;2023-03-13T10:11:24;-1.60;99.90
15107;DHT22;7654;45.308;-75.096;2023-03-13T10:13:59;-1.60;99.90
15107;DHT22;7654;45.308;-75.096;2023-03-13T10:16:36;-1.60;99.90
15107;DHT22;7654;45.308;-75.096;2023-03-13T10:19:11;-1.60;99.90
15107;DHT22;7654;45.308;-75.096;2023-03-13T10:21:46;-1.60;99.90
15107;DHT22;7654;45.308;-75.096;2023-03-13T10:24:22;-1.60;99.90
15107;DHT22;7654;45.308;-75.096;2023-03-13T10:26:56;-1.60;99.90
15107;DHT22;7654;45.308;-75.096;2023-03-13T10:29:28;-1.60;99.90
15107;DHT22;7654;45.308;-75.096;2023-03-13T10:32:01;-1.60;99.90
15107;DHT22;7654;45.308;-75.096;2023-03-13T10:34:45;-1.60;99.90
15107;DHT22;7654;45.308;-75.096;2023-03-13T10:37:21;-1.70;99.90
15107;DHT22;7654;45.308;-75.096;2023-03-13T10:39:52;-1.70;99.90
15107;DHT22;7654;45.308;-75.096;2023-03-13T10:42:27;-1.70;99.90
15107;DHT22;7654;45.308;-75.096;2023-03-13T10:44:58;-1.60;99.90
15107;DHT22;7654;45.308;-75.096;2023-03-13T10:47:34;-1.60;99.90
15107;DHT22;7654;45.308;-75.096;2023-03-13T10:50:05;-1.60;99.90
15107;DHT22;7654;45.308;-75.096;2023-03-13T10:52:42;-1.60;99.90
15107;DHT22;7654;45.308;-75.096;2023-03-13T10:55:16;-1.60;99.90
15107;DHT22;7654;45.308;-75.096;2023-03-13T10:57:55;-1.60;99.90
15107;DHT22;7654;45.308;-75.096;2023-03-13T11:00:33;-1.60;99.90
15107;DHT22;7654;45.308;-75.096;2023-03-13T11:03:12;-1.50;99.90
15107;DHT22;7654;45.308;-75.096;2023-03-13T11:05:54;-1.50;99.90
15107;DHT22;7654;45.308;-75.096;2023-03-13T11:08:26;-1.50;99.90
15107;DHT22;7654;45.308;-75.096;2023-03-13T11:10:59;-1.50;99.90
15107;DHT22;7654;45.308;-75.096;2023-03-13T11:13:35;-1.40;99.90
15107;DHT22;7654;45.308;-75.096;2023-03-13T11:16:18;-1.40;99.90
15107;DHT22;7654;45.308;-75.096;2023-03-13T11:19:07;-1.40;99.90
15107;DHT22;7654;45.308;-75.096;2023-03-13T11:21:47;-1.40;99.90
15107;DHT22;7654;45.308;-75.096;2023-03-13T11:24:27;-1.40;99.90
15107;DHT22;7654;45.308;-75.096;2023-03-13T11:27:05;-1.40;99.90
15107;DHT22;7654;45.308;-75.096;2023-03-13T11:29:45;-1.40;99.90
15107;DHT22;7654;45.308;-75.096;2023-03-13T11:32:22;-1.40;99.90
15107;DHT22;7654;45.308;-75.096;2023-03-13T11:34:59;-1.40;99.90
15107;DHT22;7654;45.308;-75.096;2023-03-13T11:37:32;-1.40;99.90
15107;DHT22;7654;45.308;-75.096;2023-03-13T11:40:13;-1.30;99.90
15107;DHT22;7654;45.308;-75.096;2023-03-13T11:43:05;-1.30;99.90
15107;DHT22;7654;45.308;-75.096;2023-03-13T11:46:14;-1.30;99.90
15107;DHT22;7654;45.308;-75.096;2023-03-13T11:48:57;-1.20;99.90
15107;DHT22;7654;45.308;-75.096;2023-03-13T11:51:33;-1.20;99.90
15107;DHT22;7654;45.308;-75.096;2023-03-13T11:54:24;-1.20;99.90
15107;DHT22;7654;45.308;-75.096;2023-03-13T11:56:57;-1.20;99.90
15107;DHT22;7654;45.308;-75.096;2023-03-13T11:59:34;-1.10;99.90
15107;DHT22;7654;45.308;-75.096;2023-03-13T12:02:17;-1.10;99.90
15107;DHT22;7654;45.308;-75.096;2023-03-13T12:04:54;-1.10;99.90
15107;DHT22;7654;45.308;-75.096;2023-03-13T12:07:31;-1.00;99.90
15107;DHT22;7654;45.308;-75.096;2023-03-13T12:10:10;-1.00;99.90
15107;DHT22;7654;45.308;-75.096;2023-03-13T12:12:44;-0.90;99.90
15107;DHT22;7654;45.308;-75.096;2023-03-13T12:15:21;-0.90;99.90
15107;DHT22;7654;45.308;-75.096;2023-03-13T12:17:57;-0.90;99.90
15107;DHT22;7654;45.308;-75.096;2023-03-13T12:20:35;-0.80;99.90
15107;DHT22;7654;45.308;-75.096;2023-03-13T12:23:25;-0.80;99.90
15107;DHT22;7654;45.308;-75.096;2023-03-13T12:26:03;-0.70;99.90
15107;DHT22;7654;45.308;-75.096;2023-03-13T12:28:38;-0.70;99.90
15107;DHT22;7654;45.308;-75.096;2023-03-13T12:31:18;-0.70;99.90
15107;DHT22;7654;45.308;-75.096;2023-03-13T12:33:55;-0.60;99.90
15107;DHT22;7654;45.308;-75.096;2023-03-13T12:36:32;-0.60;99.90
15107;DHT22;7654;45.308;-75.096;2023-03-13T12:39:14;-0.50;99.90
15107;DHT22;7654;45.308;-75.096;2023-03-13T12:41:55;-0.50;99.90
15107;DHT22;7654;45.308;-75.096;2023-03-13T12:44:26;-0.40;99.90
15107;DHT22;7654;45.308;-75.096;2023-03-13T12:47:06;-0.40;99.90
15107;DHT22;7654;45.308;-75.096;2023-03-13T12:50:12;-0.30;99.90
15107;DHT22;7654;45.308;-75.096;2023-03-13T12:56:09;-0.20;99.90
15107;DHT22;7654;45.308;-75.096;2023-03-13T12:58:46;-0.10;99.90
15107;DHT22;7654;45.308;-75.096;2023-03-13T13:01:26;0.00;99.90
15107;DHT22;7654;45.308;-75.096;2023-03-13T13:04:00;0.10;99.90
15107;DHT22;7654;45.308;-75.096;2023-03-13T13:07:06;0.20;99.90
15107;DHT22;7654;45.308;-75.096;2023-03-13T13:10:13;0.30;99.90
15107;DHT22;7654;45.308;-75.096;2023-03-13T13:13:15;0.30;99.90
15107;DHT22;7654;45.308;-75.096;2023-03-13T13:15:42;0.30;99.90
15107;DHT22;7654;45.308;-75.096;2023-03-13T13:18:24;0.40;99.90
15107;DHT22;7654;45.308;-75.096;2023-03-13T13:21:20;0.50;99.90
15107;DHT22;7654;45.308;-75.096;2023-03-13T13:23:51;0.60;99.90
15107;DHT22;7654;45.308;-75.096;2023-03-13T13:26:47;0.80;99.90
15107;DHT22;7654;45.308;-75.096;2023-03-13T13:32:42;0.90;99.90
15107;DHT22;7654;45.308;-75.096;2023-03-13T13:35:25;0.90;99.90
15107;DHT22;7654;45.308;-75.096;2023-03-13T13:38:28;1.00;99.90
15107;DHT22;7654;45.308;-75.096;2023-03-13T13:41:35;1.10;99.90
15107;DHT22;7654;45.308;-75.096;2023-03-13T13:44:25;1.30;99.90
15107;DHT22;7654;45.308;-75.096;2023-03-13T13:46:57;1.20;99.90
15107;DHT22;7654;45.308;-75.096;2023-03-13T13:49:35;1.40;99.90
15107;DHT22;7654;45.308;-75.096;2023-03-13T13:52:39;1.40;99.90
15107;DHT22;7654;45.308;-75.096;2023-03-13T13:55:33;1.60;99.90
15107;DHT22;7654;45.308;-75.096;2023-03-13T13:58:17;1.60;99.90
15107;DHT22;7654;45.308;-75.096;2023-03-13T14:00:52;1.50;99.90
15107;DHT22;7654;45.308;-75.096;2023-03-13T14:03:25;1.60;99.90
15107;DHT22;7654;45.308;-75.096;2023-03-13T14:06:00;1.70;99.90
15107;DHT22;7654;45.308;-75.096;2023-03-13T14:08:35;1.80;99.90
15107;DHT22;7654;45.308;-75.096;2023-03-13T14:11:19;1.90;99.90
15107;DHT22;7654;45.308;-75.096;2023-03-13T14:14:14;2.10;99.90
15107;DHT22;7654;45.308;-75.096;2023-03-13T14:16:45;2.30;99.90
15107;DHT22;7654;45.308;-75.096;2023-03-13T14:19:24;2.50;99.90
15107;DHT22;7654;45.308;-75.096;2023-03-13T14:22:01;2.30;99.90
15107;DHT22;7654;45.308;-75.096;2023-03-13T14:24:32;2.30;99.90
15107;DHT22;7654;45.308;-75.096;2023-03-13T14:27:13;2.40;99.90
15107;DHT22;7654;45.308;-75.096;2023-03-13T14:29:59;2.20;99.90
15107;DHT22;7654;45.308;-75.096;2023-03-13T14:32:29;2.30;99.90
15107;DHT22;7654;45.308;-75.096;2023-03-13T14:35:00;2.50;99.90
15107;DHT22;7654;45.308;-75.096;2023-03-13T14:37:39;2.70;99.90
15107;DHT22;7654;45.308;-75.096;2023-03-13T14:40:20;2.70;99.90
15107;DHT22;7654;45.308;-75.096;2023-03-13T14:42:52;2.60;99.90
15107;DHT22;7654;45.308;-75.096;2023-03-13T14:45:28;2.50;99.90
15107;DHT22;7654;45.308;-75.096;2023-03-13T14:48:04;2.70;99.90
15107;DHT22;7654;45.308;-75.096;2023-03-13T14:50:40;3.10;99.90
15107;DHT22;7654;45.308;-75.096;2023-03-13T14:53:16;3.10;99.90
15107;DHT22;7654;45.308;-75.096;2023-03-13T14:55:47;3.20;99.90
15107;DHT22;7654;45.308;-75.096;2023-03-13T14:58:28;3.20;99.90
15107;DHT22;7654;45.308;-75.096;2023-03-13T15:01:12;3.30;99.90
15107;DHT22;7654;45.308;-75.096;2023-03-13T15:03:45;3.10;99.90
15107;DHT22;7654;45.308;-75.096;2023-03-13T15:06:20;3.30;99.90
15107;DHT22;7654;45.308;-75.096;2023-03-13T15:09:20;3.60;99.90
15107;DHT22;7654;45.308;-75.096;2023-03-13T15:11:58;3.60;99.90
15107;DHT22;7654;45.308;-75.096;2023-03-13T15:14:39;3.60;99.90
15107;DHT22;7654;45.308;-75.096;2023-03-13T15:17:20;3.70;99.90
15107;DHT22;7654;45.308;-75.096;2023-03-13T15:19:52;3.40;99.90
15107;DHT22;7654;45.308;-75.096;2023-03-13T15:22:28;3.40;99.90
15107;DHT22;7654;45.308;-75.096;2023-03-13T15:25:00;3.20;99.90
15107;DHT22;7654;45.308;-75.096;2023-03-13T15:27:33;3.30;99.90
15107;DHT22;7654;45.308;-75.096;2023-03-13T15:30:04;3.40;99.90
15107;DHT22;7654;45.308;-75.096;2023-03-13T15:32:36;3.30;99.90
15107;DHT22;7654;45.308;-75.096;2023-03-13T15:35:21;3.50;99.90
15107;DHT22;7654;45.308;-75.096;2023-03-13T15:37:52;3.60;99.90
15107;DHT22;7654;45.308;-75.096;2023-03-13T15:40:24;3.50;99.90
15107;DHT22;7654;45.308;-75.096;2023-03-13T15:42:55;3.30;99.90
15107;DHT22;7654;45.308;-75.096;2023-03-13T15:45:26;3.40;99.90
15107;DHT22;7654;45.308;-75.096;2023-03-13T15:47:57;3.20;99.90
15107;DHT22;7654;45.308;-75.096;2023-03-13T15:50:27;3.40;99.90
15107;DHT22;7654;45.308;-75.096;2023-03-13T15:52:58;3.30;99.90
15107;DHT22;7654;45.308;-75.096;2023-03-13T15:55:31;3.40;99.90
15107;DHT22;7654;45.308;-75.096;2023-03-13T15:58:02;3.50;99.90
15107;DHT22;7654;45.308;-75.096;2023-03-13T16:00:33;3.60;99.90
15107;DHT22;7654;45.308;-75.096;2023-03-13T16:03:03;3.60;99.90
15107;DHT22;7654;45.308;-75.096;2023-03-13T16:05:33;3.50;99.90
15107;DHT22;7654;45.308;-75.096;2023-03-13T16:08:04;3.40;99.90
15107;DHT22;7654;45.308;-75.096;2023-03-13T16:10:36;3.20;99.90